Main page
METAR-TAF:

METAR-TAF

Airports :

Žilina Airport

Žilina, Slovakia

latitude: 49-14N, longitude: 018-36-49E, elevation: 312 m

Current weather observation

The report was made 33 minutes ago, at 21:30 UTC
Wind 5 kt from the West
Temperature 1°C
Humidity 86%
Pressure 1024 hPa
Visibility: 4200 m
Broken clouds at a height of 3100 ft
mist

METAR: LZZI 172130Z 28005KT 4200 BR BKN031 01/M01 Q1024

Time: 23:03 (22:03 UTC)

Forecast

The report was made 2 hours and 3 minutes ago, at 20:00 UTC
Forecast valid from 17 at 21 UTC to 18 at 06 UTC
Wind 2 kt from variable directions
Visibility: 3000 m
Broken clouds at a height of 3500 ft
mist
Temporary
from 17 at 21 UTC to 18 at 03 UTC
Visibility: 2500 m
Broken clouds at a height of 2000 ft
mist
Temporary
from 18 at 03 UTC to 18 at 06 UTC
Visibility: 0200 m
Overcast at a height of 100 ft
freezing fog

TAF: LZZI 172000Z 1721/1806 VRB02KT 3000 BR BKN035 TEMPO 1721/1803 2500 BR BKN020 TEMPO 1803/1806 0200 FZFG OVC001

Weather observations and forecasts of more than 4000 airports (METAR and TAF reports).

The available stations are represented by yellow and red dots on the map.

Hover mouse over dot to see the name of the station.

Then click to see weather observations and forecasts.

To change the map : click on the green buttons with a black cross to zoom in, on the green button with a dash to zoom out, or on the green arrows for adjacent maps.


METAR-TAF: